createdAt,value
2024-02-16T00:01:05.724Z,100159.97
2024-02-16T00:03:33.974Z,100147.69
2024-02-16T00:06:03.032Z,100144.16
2024-02-16T00:08:31.302Z,100148.56
2024-02-16T00:10:59.484Z,100156.47
2024-02-16T00:13:27.165Z,100148.56
2024-02-16T00:15:54.764Z,100146.78
2024-02-16T00:18:22.487Z,100145.03
2024-02-16T00:20:50.309Z,100142.41
2024-02-16T00:23:20.172Z,100137.09
2024-02-16T00:25:48.333Z,100130.06
2024-02-16T00:28:15.930Z,100134.47
2024-02-16T00:30:43.560Z,100136.22
2024-02-16T00:33:11.281Z,100117.75
2024-02-16T00:35:38.969Z,100133.59
2024-02-16T00:38:06.613Z,100128.31
2024-02-16T00:40:37.241Z,100129.19
2024-02-16T00:43:05.579Z,100127.41
2024-02-16T00:45:33.278Z,100122.16
2024-02-16T00:48:03.132Z,100124.81
2024-02-16T00:50:30.814Z,100126.56
2024-02-16T00:52:58.444Z,100123.03
2024-02-16T00:55:26.042Z,100123.91
2024-02-16T00:57:54.923Z,100120.38
2024-02-16T01:00:24.624Z,100108.94
2024-02-16T01:02:54.387Z,100125.66
2024-02-16T01:05:22.073Z,100123.03
2024-02-16T01:07:49.666Z,100110.72
2024-02-16T01:10:17.323Z,100112.47
2024-02-16T01:12:44.889Z,100117.75
2024-02-16T01:15:13.931Z,100113.34
2024-02-16T01:17:41.732Z,100115.09
2024-02-16T01:20:13.045Z,100108.97
2024-02-16T01:22:41.587Z,100106.31
2024-02-16T01:25:10.463Z,100115.97
2024-02-16T01:27:38.139Z,100123.91
2024-02-16T01:30:06.663Z,100116.88
2024-02-16T01:32:36.211Z,100121.28
2024-02-16T01:35:04.196Z,100113.34
2024-02-16T01:37:32.560Z,100125.69
2024-02-16T01:40:00.216Z,100117.75
2024-02-16T01:42:27.889Z,100123.94
2024-02-16T01:44:55.588Z,100119.50
2024-02-16T01:47:23.257Z,100120.41
2024-02-16T01:49:52.352Z,100067.59
2024-02-16T01:52:20.591Z,100127.41
2024-02-16T01:54:47.519Z,100121.28
2024-02-16T01:57:15.489Z,100115.13
2024-02-16T01:59:43.280Z,100121.25
2024-02-16T02:02:10.905Z,100124.78
2024-02-16T02:04:38.930Z,100116.88
2024-02-16T02:07:14.816Z,100130.94
2024-02-16T02:09:42.514Z,100130.03
2024-02-16T02:12:10.489Z,100124.78
2024-02-16T02:14:38.707Z,100111.59
2024-02-16T02:17:06.488Z,100116.88
2024-02-16T02:19:34.484Z,100108.97
2024-02-16T02:22:02.709Z,100105.44
2024-02-16T02:24:31.758Z,100111.59
2024-02-16T02:26:59.471Z,100108.94
2024-02-16T02:29:27.087Z,100105.44
2024-02-16T02:31:54.888Z,100099.28
2024-02-16T02:34:22.648Z,100101.91
2024-02-16T02:36:50.322Z,100103.66
2024-02-16T02:39:18.022Z,100105.44
2024-02-16T02:41:47.090Z,100094.88
2024-02-16T02:44:14.709Z,100099.28
2024-02-16T02:46:42.342Z,100100.13
2024-02-16T02:49:10.318Z,100100.16
2024-02-16T02:51:38.075Z,100100.13
2024-02-16T02:54:06.011Z,100094.88
2024-02-16T02:56:33.856Z,100093.97
2024-02-16T02:59:02.889Z,100101.03
2024-02-16T03:01:30.837Z,100102.78
2024-02-16T03:03:59.117Z,100100.09
2024-02-16T03:06:26.867Z,100089.53
2024-02-16T03:08:54.522Z,100100.06
2024-02-16T03:11:22.692Z,100103.59
2024-02-16T03:13:50.274Z,100106.25
2024-02-16T03:16:19.264Z,100104.50
2024-02-16T03:18:47.139Z,100108.00
2024-02-16T03:21:17.639Z,100105.34
2024-02-16T03:23:45.459Z,100105.38
2024-02-16T03:26:16.854Z,100105.34
2024-02-16T03:28:47.734Z,100105.34
2024-02-16T03:31:24.362Z,100101.84
2024-02-16T03:33:53.247Z,100093.94
2024-02-16T03:36:21.567Z,100096.59
2024-02-16T03:38:51.290Z,100098.31
2024-02-16T03:41:21.355Z,100097.44
2024-02-16T03:43:48.975Z,100099.25
2024-02-16T03:46:16.893Z,100102.78
2024-02-16T03:48:46.043Z,100102.72
2024-02-16T03:51:14.077Z,100116.81
2024-02-16T03:53:41.728Z,100099.28
2024-02-16T03:56:09.510Z,100103.59
2024-02-16T03:58:38.212Z,100099.22
2024-02-16T04:01:07.884Z,100108.91
2024-02-16T04:03:36.350Z,100117.66
2024-02-16T04:06:06.156Z,100112.41
2024-02-16T04:08:33.876Z,100108.00
2024-02-16T04:11:01.706Z,100108.00
2024-02-16T04:13:29.287Z,100104.47
2024-02-16T04:15:57.002Z,100121.16
2024-02-16T04:18:24.878Z,100119.41
2024-02-16T04:20:52.622Z,100125.56
2024-02-16T04:23:21.660Z,100112.38
2024-02-16T04:25:49.249Z,100128.22
2024-02-16T04:28:19.267Z,100123.81
2024-02-16T04:30:47.042Z,100128.22
2024-02-16T04:33:14.810Z,100123.84
2024-02-16T04:35:42.429Z,100124.75
2024-02-16T04:38:10.116Z,100117.72
2024-02-16T04:40:39.432Z,100124.69
2024-02-16T04:43:07.639Z,100123.88
2024-02-16T04:45:36.603Z,100134.44
2024-02-16T04:48:06.227Z,100116.84
2024-02-16T04:50:34.377Z,100127.41
2024-02-16T04:53:02.938Z,100126.50
2024-02-16T04:55:30.941Z,100127.41
2024-02-16T04:57:59.923Z,100125.66
2024-02-16T05:00:28.537Z,100129.16
2024-02-16T05:02:56.592Z,100126.53
2024-02-16T05:05:25.754Z,100126.53
2024-02-16T05:07:53.398Z,100130.06
2024-02-16T05:10:21.317Z,100129.19
2024-02-16T05:12:48.941Z,100117.75
2024-02-16T05:15:18.757Z,100129.19
2024-02-16T05:17:50.197Z,100131.81
2024-02-16T05:20:18.193Z,100127.44
2024-02-16T05:22:47.141Z,100124.78
2024-02-16T05:25:15.285Z,100128.31
2024-02-16T05:27:43.200Z,100123.91
2024-02-16T05:30:14.097Z,100119.50
2024-02-16T05:32:43.593Z,100128.31
2024-02-16T05:35:14.250Z,100129.19
2024-02-16T05:37:45.155Z,100123.03
2024-02-16T05:40:22.898Z,100119.53
2024-02-16T05:42:50.952Z,100054.44
2024-02-16T05:45:18.874Z,100126.56
2024-02-16T05:47:48.088Z,100130.94
2024-02-16T05:50:16.529Z,100014.78
2024-02-16T05:52:44.590Z,100130.97
2024-02-16T05:55:12.941Z,100111.59
2024-02-16T05:57:40.658Z,100123.94
2024-02-16T06:00:10.275Z,100120.41
2024-02-16T06:02:37.957Z,100130.94
2024-02-16T06:05:07.911Z,100134.47
2024-02-16T06:07:39.178Z,100138.88
2024-02-16T06:10:11.736Z,100138.88
2024-02-16T06:12:40.155Z,100130.09
2024-02-16T06:15:08.574Z,100040.31
2024-02-16T06:17:37.642Z,100132.72
2024-02-16T06:20:10.542Z,100130.94
2024-02-16T06:22:38.245Z,100135.34
2024-02-16T06:25:06.494Z,100127.41
2024-02-16T06:27:34.310Z,100145.91
2024-02-16T06:30:02.199Z,100145.91
2024-02-16T06:32:30.986Z,100143.28
2024-02-16T06:34:58.715Z,100142.38
2024-02-16T06:37:27.726Z,100145.91
2024-02-16T06:39:55.359Z,100142.38
2024-02-16T06:42:23.116Z,100152.94
2024-02-16T06:44:50.885Z,100140.53
2024-02-16T06:47:19.680Z,100159.00
2024-02-16T06:49:48.354Z,100136.09
2024-02-16T06:52:16.817Z,100158.97
2024-02-16T06:54:46.370Z,100154.59
2024-02-16T06:57:14.192Z,100166.88
2024-02-16T06:59:42.575Z,100161.63
2024-02-16T07:02:12.069Z,100151.06
2024-02-16T07:04:41.763Z,100169.56
2024-02-16T07:07:09.733Z,100172.25
2024-02-16T07:09:37.660Z,100184.56
2024-02-16T07:12:07.988Z,100147.53
2024-02-16T07:14:36.225Z,100188.97
2024-02-16T07:17:03.918Z,100196.00
2024-02-16T07:19:31.771Z,100193.38
2024-02-16T07:21:59.537Z,100199.53
2024-02-16T07:24:28.655Z,100195.16
2024-02-16T07:26:56.373Z,100203.03
2024-02-16T07:29:25.697Z,100201.31
2024-02-16T07:31:53.707Z,100209.25
2024-02-16T07:34:21.841Z,100208.34
2024-02-16T07:36:49.438Z,100202.19
2024-02-16T07:39:17.213Z,100206.59
2024-02-16T07:41:44.928Z,100210.13
2024-02-16T07:44:12.519Z,100095.66
2024-02-16T07:46:47.097Z,100215.44
2024-02-16T07:49:15.098Z,100232.16
2024-02-16T07:51:42.865Z,100218.09
2024-02-16T07:54:10.610Z,100226.00
2024-02-16T07:56:38.233Z,100218.09
2024-02-16T07:59:05.876Z,100218.09
2024-02-16T08:01:33.599Z,100218.09
2024-02-16T08:04:05.236Z,100219.88
2024-02-16T08:06:34.810Z,100210.16
2024-02-16T08:09:02.643Z,100217.22
2024-02-16T08:11:30.280Z,100222.50
2024-02-16T08:14:01.432Z,100226.91
2024-02-16T08:16:29.539Z,100241.00
2024-02-16T08:21:48.088Z,100253.31
2024-02-16T08:24:15.733Z,100232.19
2024-02-16T08:26:43.298Z,100245.38
2024-02-16T08:29:10.978Z,100237.47
2024-02-16T08:31:38.569Z,100241.00
2024-02-16T08:34:08.653Z,100241.84
2024-02-16T08:36:36.513Z,100245.38
2024-02-16T08:39:05.622Z,100244.50
2024-02-16T08:41:33.307Z,100245.41
2024-02-16T08:44:00.939Z,100247.16
2024-02-16T08:46:28.572Z,100246.28
2024-02-16T08:48:56.331Z,100240.09
2024-02-16T08:51:24.107Z,100240.97
2024-02-16T08:53:51.709Z,100244.50
2024-02-16T08:56:20.689Z,100246.25
2024-02-16T08:58:48.429Z,100248.94
2024-02-16T09:01:16.915Z,100248.03
2024-02-16T09:03:44.753Z,100251.56
2024-02-16T09:06:13.983Z,100255.06
2024-02-16T09:08:41.597Z,100249.78
2024-02-16T09:11:09.257Z,100264.78
2024-02-16T09:13:41.693Z,100263.00
2024-02-16T09:16:09.844Z,100263.91
2024-02-16T09:18:38.300Z,100135.34
2024-02-16T09:21:06.550Z,100271.78
2024-02-16T09:23:34.526Z,100216.31
2024-02-16T09:26:02.649Z,100211.03
2024-02-16T09:28:30.893Z,100277.97
2024-02-16T09:31:00.075Z,100278.84
2024-02-16T09:33:28.935Z,100285.91
2024-02-16T09:35:56.861Z,100283.25
2024-02-16T09:38:24.596Z,100278.00
2024-02-16T09:40:52.572Z,100282.38
2024-02-16T09:43:26.614Z,100286.75
2024-02-16T09:45:55.887Z,100298.22
2024-02-16T09:48:25.206Z,100290.28
2024-02-16T09:50:53.523Z,100295.53
2024-02-16T09:53:23.200Z,100296.41
2024-02-16T09:55:51.526Z,100304.34
2024-02-16T09:58:20.134Z,100295.56
2024-02-16T10:00:52.640Z,100292.91
2024-02-16T10:03:27.180Z,100234.78
2024-02-16T10:05:56.199Z,100283.19
2024-02-16T10:08:24.784Z,100304.28
2024-02-16T10:11:03.554Z,100306.09
2024-02-16T10:13:32.406Z,100307.81
2024-02-16T10:16:11.248Z,100300.75
2024-02-16T10:18:40.946Z,100314.88
2024-02-16T10:21:11.140Z,100238.31
2024-02-16T10:23:43.935Z,100317.50
2024-02-16T10:26:12.543Z,100317.47
2024-02-16T10:28:40.673Z,100322.78
2024-02-16T10:31:08.686Z,100326.28
2024-02-16T10:33:37.177Z,100334.22
2024-02-16T10:36:09.205Z,100331.56
2024-02-16T10:38:38.249Z,100340.41
2024-02-16T10:41:06.973Z,100334.19
2024-02-16T10:43:34.551Z,100334.22
2024-02-16T10:46:02.986Z,100322.69
2024-02-16T10:48:30.824Z,100325.31
2024-02-16T10:50:59.059Z,100335.03
2024-02-16T10:53:29.841Z,100336.81
2024-02-16T10:55:59.720Z,100340.28
2024-02-16T10:58:30.338Z,100333.22
2024-02-16T11:00:59.452Z,100341.13
2024-02-16T11:03:29.095Z,100335.81
2024-02-16T11:05:59.373Z,100339.38
2024-02-16T11:08:29.572Z,100341.13
2024-02-16T11:10:59.109Z,100331.47
2024-02-16T11:13:27.471Z,100334.97
2024-02-16T11:15:59.037Z,100297.94
2024-02-16T11:18:26.962Z,100328.75
2024-02-16T11:20:56.409Z,100339.38
2024-02-16T11:23:30.267Z,100336.69
2024-02-16T11:26:02.867Z,100331.34
2024-02-16T11:28:32.039Z,100334.84
2024-02-16T11:31:01.887Z,100334.88
2024-02-16T11:33:30.209Z,100327.88
2024-02-16T11:35:58.463Z,100307.63
2024-02-16T11:38:27.758Z,100325.09
2024-02-16T11:40:58.893Z,100333.84
2024-02-16T11:43:27.302Z,100229.09
2024-02-16T11:45:55.779Z,100328.50
2024-02-16T11:48:24.537Z,100328.59
2024-02-16T11:51:01.188Z,100338.34
2024-02-16T11:53:30.777Z,100329.47
2024-02-16T11:55:58.769Z,100335.59
2024-02-16T11:58:28.416Z,100325.88
2024-02-16T12:01:00.850Z,100335.59
2024-02-16T12:03:31.289Z,100337.31
2024-02-16T12:06:02.574Z,100333.72
2024-02-16T12:08:36.885Z,100332.81
2024-02-16T12:11:08.331Z,100324.81
2024-02-16T12:13:36.577Z,100332.78
2024-02-16T12:16:05.024Z,100319.47
2024-02-16T12:18:33.208Z,100325.66
2024-02-16T12:21:02.656Z,100326.50
2024-02-16T12:23:32.873Z,100322.91
2024-02-16T12:26:02.765Z,100328.19
2024-02-16T12:28:33.231Z,100322.72
2024-02-16T12:31:05.276Z,100317.28
2024-02-16T12:33:34.154Z,100312.88
2024-02-16T12:36:02.683Z,100319.75
2024-02-16T12:38:30.947Z,100320.47
2024-02-16T12:40:59.286Z,100329.19
2024-02-16T12:43:28.572Z,100327.28
2024-02-16T12:45:56.242Z,100326.06
2024-02-16T12:48:24.369Z,100323.38
2024-02-16T12:50:53.920Z,100329.03
2024-02-16T12:53:21.987Z,100323.06
2024-02-16T12:55:49.812Z,100324.59
2024-02-16T12:58:17.553Z,100319.50
2024-02-16T13:00:46.666Z,100324.06
2024-02-16T13:03:14.793Z,100326.19
2024-02-16T13:05:44.734Z,100323.38
2024-02-16T13:08:16.909Z,100319.16
2024-02-16T13:10:45.172Z,100313.44
2024-02-16T13:13:16.566Z,100311.06
2024-02-16T13:15:50.197Z,100317.59
2024-02-16T13:18:18.406Z,100320.31
2024-02-16T13:20:46.353Z,100311.63
2024-02-16T13:23:14.055Z,100309.91
2024-02-16T13:25:44.135Z,100288.88
2024-02-16T13:28:13.176Z,100307.31
2024-02-16T13:30:44.453Z,100312.75
2024-02-16T13:33:17.554Z,100312.81
2024-02-16T13:35:45.792Z,100312.75
2024-02-16T13:38:15.161Z,100300.66
2024-02-16T13:40:44.168Z,100303.38
2024-02-16T13:43:12.023Z,100321.00
2024-02-16T13:45:53.002Z,100306.78
2024-02-16T13:48:23.114Z,100316.53
2024-02-16T13:50:51.924Z,100308.53
2024-02-16T13:53:21.848Z,100309.31
2024-02-16T13:55:50.330Z,100306.66
2024-02-16T13:58:18.042Z,100309.31
2024-02-16T14:00:46.088Z,100315.53
2024-02-16T14:03:16.631Z,100270.69
2024-02-16T14:05:47.149Z,100319.09
2024-02-16T14:08:16.380Z,100320.84
2024-02-16T14:10:44.855Z,100320.84
2024-02-16T14:13:12.658Z,100335.00
2024-02-16T14:15:40.443Z,100328.66
2024-02-16T14:18:14.587Z,100331.25
2024-02-16T14:20:47.177Z,100341.84
2024-02-16T14:23:15.196Z,100341.91
2024-02-16T14:25:42.884Z,100347.22
2024-02-16T14:28:10.477Z,100351.72
2024-02-16T14:30:38.239Z,100365.03
2024-02-16T14:33:06.542Z,100366.91
2024-02-16T14:35:37.763Z,100354.41
2024-02-16T14:38:07.116Z,100366.75
2024-02-16T14:40:34.953Z,100361.59
2024-02-16T14:43:03.139Z,100369.63
2024-02-16T14:45:31.205Z,100368.81
2024-02-16T14:47:59.900Z,100369.78
2024-02-16T14:50:27.736Z,100370.69
2024-02-16T14:52:55.363Z,100371.66
2024-02-16T14:55:24.602Z,100381.47
2024-02-16T14:57:52.978Z,100384.25
2024-02-16T15:00:21.439Z,100379.81
2024-02-16T15:02:51.541Z,100385.97
2024-02-16T15:05:21.799Z,100391.28
2024-02-16T15:07:51.110Z,100396.66
2024-02-16T15:10:19.018Z,100393.97
2024-02-16T15:12:48.118Z,100387.78
2024-02-16T15:15:16.187Z,100402.03
2024-02-16T15:17:43.908Z,100400.31
2024-02-16T15:20:12.120Z,100410.13
2024-02-16T15:22:48.185Z,100411.91
2024-02-16T15:25:21.022Z,100297.63
2024-02-16T15:27:50.050Z,100408.50
2024-02-16T15:30:18.005Z,100416.47
2024-02-16T15:32:45.757Z,100405.78
2024-02-16T15:35:13.424Z,100412.81
2024-02-16T15:37:41.258Z,100425.28
2024-02-16T15:40:09.913Z,100426.25
2024-02-16T15:42:37.651Z,100428.94
2024-02-16T15:45:07.763Z,100424.50
2024-02-16T15:47:35.425Z,100427.19
2024-02-16T15:50:03.208Z,100425.56
2024-02-16T15:52:30.822Z,100435.25
2024-02-16T15:54:58.530Z,100436.16
2024-02-16T15:57:26.137Z,100445.88
2024-02-16T15:59:53.825Z,100444.09
2024-02-16T16:02:22.770Z,100445.91
2024-02-16T16:04:50.580Z,100450.31
2024-02-16T16:07:19.332Z,100449.47
2024-02-16T16:09:47.013Z,100459.19
2024-02-16T16:12:14.732Z,100462.81
2024-02-16T16:14:42.415Z,100457.47
2024-02-16T16:17:10.025Z,100463.72
2024-02-16T16:19:39.025Z,100465.53
2024-02-16T16:22:06.751Z,100462.03
2024-02-16T16:24:34.456Z,100470.84
2024-02-16T16:27:02.140Z,100470.06
2024-02-16T16:29:29.724Z,100476.28
2024-02-16T16:32:00.146Z,100471.84
2024-02-16T16:34:30.398Z,100475.38
2024-02-16T16:36:59.818Z,100477.19
2024-02-16T16:39:27.550Z,100468.38
2024-02-16T16:41:56.124Z,100373.22
2024-02-16T16:44:24.244Z,100466.63
2024-02-16T16:46:51.995Z,100472.88
2024-02-16T16:49:19.841Z,100478.19
2024-02-16T16:51:47.646Z,100482.66
2024-02-16T16:54:18.039Z,100493.25
2024-02-16T16:56:45.653Z,100496.75
2024-02-16T16:59:13.656Z,100502.13
2024-02-16T17:01:41.315Z,100501.28
2024-02-16T17:04:08.992Z,100511.84
2024-02-16T17:06:37.936Z,100521.63
2024-02-16T17:09:05.840Z,100529.63
2024-02-16T17:11:38.304Z,100545.59
2024-02-16T17:14:08.869Z,100538.50
2024-02-16T17:16:36.635Z,100538.50
2024-02-16T17:19:05.073Z,100558.88
2024-02-16T17:21:33.055Z,100546.53
2024-02-16T17:24:00.895Z,100561.63
2024-02-16T17:26:28.592Z,100562.53
2024-02-16T17:28:58.069Z,100563.44
2024-02-16T17:31:25.712Z,100578.53
2024-02-16T17:33:53.495Z,100582.03
2024-02-16T17:36:21.329Z,100577.66
2024-02-16T17:38:48.996Z,100588.25
2024-02-16T17:41:22.924Z,100586.50
2024-02-16T17:43:50.555Z,100590.06
2024-02-16T17:46:19.714Z,100598.88
2024-02-16T17:48:47.705Z,100598.91
2024-02-16T17:51:15.493Z,100608.66
2024-02-16T17:53:43.098Z,100609.53
2024-02-16T17:56:11.511Z,100603.34
2024-02-16T17:58:39.169Z,100605.13
2024-02-16T18:01:06.852Z,100596.31
2024-02-16T18:03:35.965Z,100608.66
2024-02-16T18:06:03.976Z,100610.44
2024-02-16T18:08:31.821Z,100612.22
2024-02-16T18:10:59.679Z,100610.47
2024-02-16T18:13:27.411Z,100598.09
2024-02-16T18:15:56.233Z,100616.66
2024-02-16T18:18:24.220Z,100620.19
2024-02-16T18:20:53.732Z,100626.38
2024-02-16T18:23:23.295Z,100629.88
2024-02-16T18:25:52.062Z,100629.00
2024-02-16T18:28:26.018Z,100635.19
2024-02-16T18:30:57.880Z,100634.28
2024-02-16T18:33:26.429Z,100634.31
2024-02-16T18:35:55.577Z,100642.25
2024-02-16T18:38:23.290Z,100639.59
2024-02-16T18:40:51.124Z,100640.47
2024-02-16T18:43:18.779Z,100648.44
2024-02-16T18:45:46.568Z,100651.97
2024-02-16T18:48:14.540Z,100648.44
2024-02-16T18:50:42.824Z,100651.06
2024-02-16T18:53:12.140Z,100640.47
2024-02-16T18:55:45.553Z,100646.66
2024-02-16T18:58:13.561Z,100583.06
2024-02-16T19:00:41.359Z,100645.78
2024-02-16T19:03:09.015Z,100657.25
2024-02-16T19:05:37.106Z,100659.88
2024-02-16T19:08:06.364Z,100666.06
2024-02-16T19:10:39.462Z,100660.81
2024-02-16T19:13:07.125Z,100668.72
2024-02-16T19:15:34.752Z,100674.91
2024-02-16T19:18:04.382Z,100676.69
2024-02-16T19:20:32.906Z,100675.75
2024-02-16T19:23:00.590Z,100681.06
2024-02-16T19:25:28.310Z,100583.03
2024-02-16T19:27:59.317Z,100679.31
2024-02-16T19:30:27.827Z,100689.91
2024-02-16T19:32:55.572Z,100680.16
2024-02-16T19:35:23.876Z,100684.56
2024-02-16T19:37:51.538Z,100689.00
2024-02-16T19:40:19.309Z,100694.31
2024-02-16T19:42:47.543Z,100687.22
2024-02-16T19:45:25.656Z,100694.28
2024-02-16T19:47:56.920Z,100694.28
2024-02-16T19:50:24.652Z,100700.47
2024-02-16T19:52:52.318Z,100696.03
2024-02-16T19:55:20.765Z,100700.47
2024-02-16T19:57:51.013Z,100707.53
2024-02-16T20:00:21.507Z,100711.91
2024-02-16T20:02:49.150Z,100713.69
2024-02-16T20:05:19.162Z,100718.94
2024-02-16T20:07:47.369Z,100651.78
2024-02-16T20:10:16.260Z,100726.94
2024-02-16T20:12:44.195Z,100725.19
2024-02-16T20:15:12.484Z,100731.31
2024-02-16T20:17:42.440Z,100730.44
2024-02-16T20:20:11.403Z,100735.75
2024-02-16T20:22:40.337Z,100733.97
2024-02-16T20:25:08.619Z,100741.94
2024-02-16T20:27:37.696Z,100740.16
2024-02-16T20:30:06.089Z,100745.44
2024-02-16T20:32:33.728Z,100748.09
2024-02-16T20:35:05.513Z,100749.88
2024-02-16T20:37:33.754Z,100756.00
2024-02-16T20:40:02.990Z,100757.81
2024-02-16T20:42:33.127Z,100760.44
2024-02-16T20:45:01.000Z,100766.63
2024-02-16T20:47:29.138Z,100765.75
2024-02-16T20:49:59.363Z,100764.00
2024-02-16T20:52:28.393Z,100771.03
2024-02-16T20:54:56.026Z,100771.91
2024-02-16T20:57:23.661Z,100776.31
2024-02-16T20:59:51.292Z,100786.03
2024-02-16T21:02:20.584Z,100794.84
2024-02-16T21:04:48.735Z,100791.31
2024-02-16T21:07:16.580Z,100798.38
2024-02-16T21:09:45.648Z,100800.13
2024-02-16T21:12:13.573Z,100766.53
2024-02-16T21:14:41.643Z,100813.38
2024-02-16T21:17:09.762Z,100821.31
2024-02-16T21:19:37.397Z,100829.22
2024-02-16T21:22:05.106Z,100841.59
2024-02-16T21:24:32.782Z,100844.25
2024-02-16T21:27:01.870Z,100837.22
2024-02-16T21:29:29.528Z,100841.59
2024-02-16T21:31:57.155Z,100847.75
2024-02-16T21:34:24.857Z,100847.75
2024-02-16T21:36:54.708Z,100848.66
2024-02-16T21:39:22.482Z,100846.00
2024-02-16T21:41:50.198Z,100851.34
2024-02-16T21:44:19.178Z,100854.84
2024-02-16T21:46:46.784Z,100856.59
2024-02-16T21:49:14.597Z,100860.16
2024-02-16T21:51:43.466Z,100861.94
2024-02-16T21:54:11.843Z,100867.22
2024-02-16T21:56:39.578Z,100865.41
2024-02-16T21:59:07.213Z,100869.81
2024-02-16T22:01:36.203Z,100880.41
2024-02-16T22:04:04.316Z,100874.22
2024-02-16T22:06:32.325Z,100882.97
2024-02-16T22:09:00.394Z,100893.59
2024-02-16T22:11:28.455Z,100892.75
2024-02-16T22:13:56.349Z,100887.44
2024-02-16T22:16:23.943Z,100906.03
2024-02-16T22:18:53.367Z,100901.59
2024-02-16T22:21:24.404Z,100909.53
2024-02-16T22:23:57.784Z,100907.81
2024-02-16T22:26:25.597Z,100914.84
2024-02-16T22:28:53.449Z,100921.00
2024-02-16T22:31:22.791Z,100920.13
2024-02-16T22:33:53.138Z,100933.41
2024-02-16T22:36:21.014Z,100932.50
2024-02-16T22:38:48.637Z,100938.69
2024-02-16T22:41:18.966Z,100936.91
2024-02-16T22:43:46.657Z,100944.00
2024-02-16T22:46:14.284Z,100943.13
2024-02-16T22:48:42.028Z,100944.88
2024-02-16T22:51:11.343Z,100953.69
2024-02-16T22:53:39.553Z,100951.84
2024-02-16T22:56:09.101Z,100956.28
2024-02-16T22:58:36.736Z,100966.00
2024-02-16T23:01:05.356Z,100975.56
2024-02-16T23:03:33.215Z,100968.53
2024-02-16T23:06:03.694Z,100974.72
2024-02-16T23:08:33.792Z,100979.09
2024-02-16T23:11:01.807Z,100984.41
2024-02-16T23:13:29.416Z,100992.41
2024-02-16T23:15:57.019Z,101002.94
2024-02-16T23:18:26.101Z,100985.25
2024-02-16T23:20:53.977Z,100987.88
2024-02-16T23:23:22.182Z,100978.09
2024-02-16T23:25:51.283Z,100988.78
2024-02-16T23:28:19.172Z,100998.50
2024-02-16T23:30:47.195Z,101001.13
2024-02-16T23:33:15.129Z,101012.63
2024-02-16T23:35:43.045Z,101004.66
2024-02-16T23:38:12.431Z,101018.75
2024-02-16T23:40:41.312Z,101009.88
2024-02-16T23:43:13.114Z,101014.28
2024-02-16T23:45:40.951Z,101021.28
2024-02-16T23:48:09.765Z,101016.84
2024-02-16T23:50:37.717Z,101023.88
2024-02-16T23:53:05.616Z,101020.31
2024-02-16T23:55:33.461Z,101024.66
2024-02-16T23:58:01.330Z,101028.94
